Time;durP1;ratioP1;P1;durP2;ratioP2;P2;SDS_P1;SDS_P2;PMS_P1;PMS_P2;Temp;Humidity;BMP_temperature;BMP_pressure;BME280_temperature;BME280_humidity;BME280_pressure;Samples;Min_cycle;Max_cycle;Signal;HPM_P1;HPM_P2
2023/01/01 15:03:16;;;;;;;11.25;3.00;;;13.50;72.30;;;;;;5131962;27;20324;-54
2023/01/01 15:05:44;;;;;;;5.72;2.58;;;13.50;72.00;;;;;;5131545;28;20027;-54
2023/01/01 15:08:24;;;;;;;11.45;3.28;;;13.60;71.50;;;;;;5131597;28;20027;-55
2023/01/01 15:10:50;;;;;;;9.77;3.85;;;13.70;71.30;;;;;;5131692;28;20488;-53
2023/01/01 15:13:22;;;;;;;5.35;1.80;;;13.70;71.30;;;;;;5112905;28;20023;-54
2023/01/01 15:15:51;;;;;;;4.05;2.13;;;13.80;70.80;;;;;;5131474;28;20032;-51
2023/01/01 15:18:36;;;;;;;10.07;2.50;;;13.70;70.60;;;;;;5131967;28;20052;-52
2023/01/01 15:21:06;;;;;;;5.53;1.98;;;13.70;70.90;;;;;;5131630;28;20548;-51
2023/01/01 15:23:33;;;;;;;9.07;2.88;;;13.70;70.80;;;;;;5131327;28;20015;-51
2023/01/01 15:25:59;;;;;;;8.07;3.83;;;13.70;70.80;;;;;;5131016;28;20023;-53
2023/01/01 15:28:24;;;;;;;8.25;2.63;;;13.70;70.90;;;;;;5112859;28;20123;-54
2023/01/01 15:30:58;;;;;;;12.02;2.88;;;13.60;71.00;;;;;;5131441;28;20363;-55
2023/01/01 15:33:24;;;;;;;7.63;2.45;;;13.60;70.90;;;;;;5131247;28;20024;-55
2023/01/01 15:35:52;;;;;;;9.45;3.05;;;13.60;70.90;;;;;;5131073;28;20487;-53
2023/01/01 15:38:22;;;;;;;12.30;2.80;;;13.60;71.00;;;;;;5131015;28;20127;-51
2023/01/01 15:40:48;;;;;;;6.85;2.65;;;13.60;70.80;;;;;;5130855;28;20023;-53
2023/01/01 15:43:24;;;;;;;10.73;5.13;;;13.50;70.80;;;;;;5130827;28;20032;-53
2023/01/01 15:45:57;;;;;;;12.10;3.10;;;13.50;71.10;;;;;;5130724;28;20051;-51
2023/01/01 15:48:36;;;;;;;8.55;2.80;;;13.60;70.90;;;;;;5130933;28;20023;-51
2023/01/01 15:51:06;;;;;;;6.38;3.00;;;13.60;70.90;;;;;;5130901;28;20077;-49
2023/01/01 15:53:58;;;;;;;;;;;13.60;70.90;;;;;;5112635;28;20080;-54
2023/01/01 15:56:29;;;;;;;10.07;3.63;;;13.60;70.70;;;;;;5108259;28;19922;-53
2023/01/01 15:58:55;;;;;;;12.65;5.03;;;13.60;70.60;;;;;;5130035;28;20051;-52
2023/01/01 16:01:27;;;;;;;11.80;3.95;;;13.50;70.70;;;;;;5129697;28;20051;-53
2023/01/01 16:04:01;;;;;;;9.13;3.75;;;13.60;70.50;;;;;;5130544;28;20079;-53
2023/01/01 16:06:27;;;;;;;7.28;3.03;;;13.60;70.60;;;;;;5130250;28;20080;-54
2023/01/01 16:08:53;;;;;;;8.52;2.72;;;13.60;70.50;;;;;;5111861;28;20463;-57
2023/01/01 16:11:18;;;;;;;16.45;3.42;;;13.60;70.70;;;;;;5130434;28;20374;-53
2023/01/01 16:13:44;;;;;;;8.77;2.83;;;13.60;71.10;;;;;;5120701;28;20027;-53
2023/01/01 16:16:37;;;;;;;10.13;2.58;;;13.50;71.60;;;;;;5116330;28;20436;-49
2023/01/01 16:19:03;;;;;;;13.45;2.60;;;13.40;72.00;;;;;;5111930;28;20032;-52
2023/01/01 16:21:31;;;;;;;6.50;2.83;;;13.50;72.10;;;;;;5116147;28;20061;-55
2023/01/01 16:23:58;;;;;;;7.00;2.83;;;13.30;72.60;;;;;;5116358;28;20020;-53
2023/01/01 16:26:24;;;;;;;20.15;9.27;;;13.30;73.00;;;;;;5116253;28;20055;-52
2023/01/01 16:28:50;;;;;;;11.57;4.88;;;13.30;73.20;;;;;;5116166;28;20035;-52
2023/01/01 16:31:29;;;;;;;5.22;2.50;;;13.30;73.40;;;;;;5116659;28;20382;-58
2023/01/01 16:33:58;;;;;;;9.37;2.37;;;13.30;73.40;;;;;;5098325;28;20114;-56
2023/01/01 16:36:28;;;;;;;7.97;2.50;;;13.30;73.40;;;;;;5081284;28;20265;-57
2023/01/01 16:38:54;;;;;;;6.60;2.47;;;13.30;73.70;;;;;;5116326;28;20032;-57
2023/01/01 16:41:20;;;;;;;11.57;2.97;;;13.30;73.70;;;;;;5116180;28;20024;-57
2023/01/01 16:43:47;;;;;;;9.07;3.15;;;13.20;74.50;;;;;;5098241;28;20099;-55
2023/01/01 16:46:13;;;;;;;5.70;2.22;;;13.20;74.70;;;;;;5116082;28;20024;-56
2023/01/01 16:48:42;;;;;;;8.13;2.17;;;13.20;75.20;;;;;;5097861;28;20024;-57
2023/01/01 16:51:27;;;;;;;4.75;2.20;;;13.10;75.30;;;;;;5081498;28;20099;-59
2023/01/01 16:53:54;;;;;;;6.68;2.47;;;13.00;75.90;;;;;;5116244;28;20459;-58
2023/01/01 16:56:19;;;;;;;9.27;2.53;;;13.10;76.20;;;;;;5116089;28;20027;-55
2023/01/01 16:58:45;;;;;;;7.25;1.85;;;13.00;76.40;;;;;;5115810;28;20028;-58
2023/01/01 17:01:11;;;;;;;13.35;4.35;;;12.80;77.30;;;;;;5115429;28;20138;-58
2023/01/01 17:03:37;;;;;;;8.15;2.13;;;12.70;78.50;;;;;;5115554;28;20033;-59
2023/01/01 17:06:07;;;;;;;6.50;2.33;;;12.60;79.30;;;;;;5115601;28;20020;-56
2023/01/01 17:08:33;;;;;;;;;;;12.40;80.70;;;;;;5115696;28;20174;-57
2023/01/01 17:11:10;;;;;;;5.03;2.17;;;12.30;81.40;;;;;;5115266;28;19904;-58
2023/01/01 17:13:37;;;;;;;6.38;2.45;;;12.30;82.20;;;;;;5097052;28;20111;-59
2023/01/01 17:16:03;;;;;;;9.48;2.50;;;12.20;82.80;;;;;;5115742;28;20169;-58
2023/01/01 17:18:28;;;;;;;5.43;2.38;;;12.10;83.50;;;;;;5115297;28;20050;-59
2023/01/01 17:20:54;;;;;;;4.72;2.35;;;12.00;84.10;;;;;;5115351;28;20070;-58
2023/01/01 17:23:20;;;;;;;10.32;2.50;;;11.90;84.80;;;;;;5115232;28;20147;-58
2023/01/01 17:25:45;;;;;;;8.15;3.20;;;11.80;85.30;;;;;;5114984;28;20070;-57
2023/01/01 17:28:11;;;;;;;7.60;3.58;;;11.80;85.80;;;;;;5115408;28;20466;-59
2023/01/01 17:30:37;;;;;;;16.23;6.53;;;11.80;86.30;;;;;;5115663;28;20110;-59
2023/01/01 17:33:02;;;;;;;6.20;2.20;;;11.70;86.60;;;;;;5115007;28;20028;-57
2023/01/01 17:35:29;;;;;;;5.40;2.30;;;11.60;87.00;;;;;;5115533;28;20413;-60
2023/01/01 17:37:55;;;;;;;9.18;2.70;;;11.70;87.40;;;;;;5114903;28;20028;-60
2023/01/01 17:40:20;;;;;;;23.48;12.57;;;11.70;87.70;;;;;;5115094;28;20027;-59
2023/01/01 17:42:46;;;;;;;17.02;6.55;;;11.60;87.60;;;;;;5114711;28;20031;-61
2023/01/01 17:45:12;;;;;;;10.10;3.80;;;11.60;87.80;;;;;;5114977;28;20024;-60
2023/01/01 17:47:37;;;;;;;11.68;3.90;;;11.50;88.20;;;;;;5114761;28;20466;-55
2023/01/01 17:50:04;;;;;;;9.55;4.18;;;11.60;88.30;;;;;;5115094;28;20061;-58
2023/01/01 17:52:30;;;;;;;12.52;5.78;;;11.60;88.50;;;;;;5114518;28;20035;-59
2023/01/01 17:54:55;;;;;;;5.90;3.90;;;11.50;88.60;;;;;;5114659;28;20023;-62
2023/01/01 17:57:21;;;;;;;10.35;4.85;;;11.50;88.90;;;;;;5096240;28;20031;-58
2023/01/01 17:59:46;;;;;;;14.18;7.18;;;11.50;89.10;;;;;;5114294;28;20042;-57
2023/01/01 18:02:13;;;;;;;14.57;5.40;;;11.50;89.20;;;;;;5114191;28;20036;-59
2023/01/01 18:04:39;;;;;;;8.07;4.32;;;11.40;89.60;;;;;;5079642;28;20210;-58
2023/01/01 18:07:05;;;;;;;11.80;5.45;;;11.40;89.60;;;;;;5095918;28;20019;-59
2023/01/01 18:09:31;;;;;;;10.75;4.72;;;11.50;89.70;;;;;;5114403;28;20482;-58
2023/01/01 18:11:57;;;;;;;8.55;4.78;;;11.50;89.90;;;;;;5114147;28;20027;-59
2023/01/01 18:14:22;;;;;;;8.00;4.47;;;11.50;90.00;;;;;;5114622;28;20375;-60
2023/01/01 18:16:48;;;;;;;15.35;4.57;;;11.40;90.00;;;;;;5114063;28;20027;-59
2023/01/01 18:19:14;;;;;;;6.22;2.80;;;11.40;90.20;;;;;;5114459;28;20031;-60
2023/01/01 18:21:41;;;;;;;6.13;3.33;;;11.30;90.60;;;;;;5113998;28;20028;-58
2023/01/01 18:24:12;;;;;;;7.13;4.78;;;11.30;90.80;;;;;;5114353;28;20031;-59
2023/01/01 18:26:38;;;;;;;14.52;6.97;;;11.30;90.80;;;;;;5096298;28;20027;-59
2023/01/01 18:29:04;;;;;;;9.85;3.75;;;11.30;90.90;;;;;;5114358;28;20020;-60
2023/01/01 18:31:32;;;;;;;16.60;6.28;;;11.30;91.10;;;;;;5114364;28;20032;-59
2023/01/01 18:34:00;;;;;;;10.50;3.53;;;11.30;91.20;;;;;;5114290;28;20035;-59
2023/01/01 18:36:28;;;;;;;10.60;3.53;;;11.30;91.00;;;;;;5113786;28;20425;-58
2023/01/01 18:39:00;;;;;;;8.00;3.85;;;11.30;91.30;;;;;;5113858;28;20084;-56
2023/01/01 18:41:48;;;;;;;10.82;3.97;;;11.20;91.50;;;;;;5095357;28;20035;-57
2023/01/01 18:44:21;;;;;;;13.05;5.10;;;11.20;91.70;;;;;;5113880;28;20379;-59
2023/01/01 18:47:04;;;;;;;6.75;3.20;;;11.20;91.80;;;;;;5113983;28;20027;-59
2023/01/01 18:49:31;;;;;;;9.02;3.90;;;11.20;91.80;;;;;;5114091;28;20101;-58
2023/01/01 18:52:06;;;;;;;7.25;3.65;;;11.10;91.90;;;;;;5114012;28;20031;-60
2023/01/01 18:54:33;;;;;;;8.68;4.75;;;11.20;92.10;;;;;;5113568;28;20028;-58
2023/01/01 18:57:09;;;;;;;10.93;3.80;;;11.20;92.30;;;;;;5113597;28;20023;-59
2023/01/01 18:59:36;;;;;;;8.07;3.83;;;11.10;92.30;;;;;;5114286;28;20535;-57
2023/01/01 19:02:26;;;;;;;9.40;4.32;;;11.10;92.40;;;;;;5116587;28;20119;-58
2023/01/01 19:04:55;;;;;;;8.37;4.60;;;11.20;92.40;;;;;;5114232;28;20023;-57
2023/01/01 19:07:21;;;;;;;14.70;4.75;;;11.10;92.50;;;;;;5095911;28;20383;-60
2023/01/01 19:09:47;;;;;;;10.15;4.75;;;11.20;92.70;;;;;;5114519;28;20023;-59
2023/01/01 19:12:17;;;;;;;9.13;4.93;;;11.10;92.60;;;;;;5113679;28;20023;-58
2023/01/01 19:14:43;;;;;;;11.48;5.38;;;11.10;92.70;;;;;;5113633;28;20055;-60
2023/01/01 19:17:18;;;;;;;10.70;5.60;;;11.10;92.70;;;;;;5113865;28;20039;-60
2023/01/01 19:19:44;;;;;;;9.43;5.25;;;11.20;92.70;;;;;;5113717;28;20378;-58
2023/01/01 19:22:24;;;;;;;9.48;4.47;;;11.20;92.80;;;;;;5113904;28;20107;-59
2023/01/01 19:24:50;;;;;;;10.57;4.38;;;11.20;92.70;;;;;;5113627;28;20072;-60
2023/01/01 19:27:17;;;;;;;11.60;5.35;;;11.20;92.80;;;;;;5113266;28;20081;-60
2023/01/01 19:29:45;;;;;;;11.88;5.03;;;11.20;92.70;;;;;;5114290;28;20020;-59
2023/01/01 19:32:11;;;;;;;15.88;6.43;;;11.10;92.70;;;;;;5095576;28;20034;-60
2023/01/01 19:34:38;;;;;;;8.75;4.13;;;11.20;92.70;;;;;;5113383;28;20098;-60
2023/01/01 19:37:06;;;;;;;13.85;4.90;;;11.20;92.80;;;;;;5113340;28;20020;-60
2023/01/01 19:39:33;;;;;;;15.38;5.07;;;11.20;92.50;;;;;;5113625;28;20495;-60
2023/01/01 19:42:03;;;;;;;12.30;6.80;;;11.20;92.50;;;;;;5113387;28;20031;-60
2023/01/01 19:44:30;;;;;;;9.18;4.40;;;11.40;92.50;;;;;;5114595;28;20027;-60
2023/01/01 19:46:55;;;;;;;11.32;5.88;;;11.20;92.20;;;;;;5114390;28;20383;-60
2023/01/01 19:49:22;;;;;;;10.20;5.00;;;11.30;92.40;;;;;;5099221;28;20034;-60
2023/01/01 19:51:48;;;;;;;13.38;5.07;;;11.30;92.30;;;;;;5117735;28;20389;-61
2023/01/01 19:54:14;;;;;;;12.73;5.90;;;11.30;92.20;;;;;;5117253;28;20024;-60
2023/01/01 19:56:39;;;;;;;10.82;5.35;;;11.30;92.10;;;;;;5117294;28;20081;-60
2023/01/01 19:59:06;;;;;;;12.00;5.35;;;11.20;92.20;;;;;;5117213;28;20028;-56
2023/01/01 20:01:32;;;;;;;8.88;5.55;;;11.30;92.30;;;;;;5116759;28;20359;-54
2023/01/01 20:03:58;;;;;;;21.17;6.35;;;11.30;92.20;;;;;;5098255;28;20034;-52
2023/01/01 20:06:24;;;;;;;10.45;7.20;;;11.30;92.30;;;;;;5116752;28;20025;-54
2023/01/01 20:08:50;;;;;;;21.05;9.70;;;11.30;92.10;;;;;;5116691;28;20024;-52
2023/01/01 20:11:15;;;;;;;23.52;11.20;;;11.30;92.10;;;;;;5116635;28;20027;-52
2023/01/01 20:13:41;;;;;;;20.55;9.63;;;11.30;92.00;;;;;;5116580;28;20032;-52
2023/01/01 20:16:07;;;;;;;13.30;6.75;;;11.30;91.90;;;;;;5116558;28;20035;-51
2023/01/01 20:18:33;;;;;;;18.30;6.13;;;11.30;91.70;;;;;;5116659;28;20039;-52
2023/01/01 20:23:45;;;;;;;18.02;9.10;;;11.30;91.50;;;;;;5116863;28;20035;-54
2023/01/01 20:26:13;;;;;;;20.30;8.77;;;11.30;91.40;;;;;;5098130;28;20110;-52
2023/01/01 20:31:23;;;;;;;9.15;4.70;;;11.40;91.30;;;;;;5116533;28;20428;-51
2023/01/01 20:33:49;;;;;;;22.55;8.70;;;11.40;91.20;;;;;;5116484;28;20027;-55
2023/01/01 20:38:59;;;;;;;19.60;7.63;;;11.40;91.10;;;;;;5116882;28;20035;-56
2023/01/01 20:41:25;;;;;;;12.05;5.32;;;11.50;91.20;;;;;;5116408;28;20028;-54
2023/01/01 20:43:57;;;;;;;16.70;7.68;;;11.40;90.90;;;;;;5116051;28;20491;-51
2023/01/01 20:46:24;;;;;;;19.05;8.60;;;11.30;90.90;;;;;;5097689;28;20019;-52
2023/01/01 20:48:53;;;;;;;13.68;6.88;;;11.40;91.00;;;;;;5121036;28;20028;-52
2023/01/01 20:51:18;;;;;;;14.18;6.53;;;11.40;91.10;;;;;;5097773;28;20122;-53
2023/01/01 20:53:44;;;;;;;10.75;5.18;;;11.50;91.00;;;;;;5116393;28;20495;-53
2023/01/01 20:56:10;;;;;;;10.05;5.25;;;11.50;90.70;;;;;;5116208;28;20107;-54
2023/01/01 20:58:36;;;;;;;58.88;31.55;;;11.50;90.70;;;;;;5116073;28;20028;-56
